sensor_id;sensor_type;location;lat;lon;timestamp;pressure;altitude;pressure_sealevel;temperature;humidity
74544;BME280;63016;55.030;38.710;2022-10-31T00:01:13;98338.78;;;2.39;66.37
74544;BME280;63016;55.030;38.710;2022-10-31T00:03:39;98328.13;;;2.34;66.27
74544;BME280;63016;55.030;38.710;2022-10-31T00:06:04;98320.53;;;2.32;66.25
74544;BME280;63016;55.030;38.710;2022-10-31T00:08:30;98332.16;;;2.36;66.32
74544;BME280;63016;55.030;38.710;2022-10-31T00:10:55;98309.91;;;2.27;66.10
74544;BME280;63016;55.030;38.710;2022-10-31T00:13:21;98321.22;;;2.34;66.30
74544;BME280;63016;55.030;38.710;2022-10-31T00:15:46;98320.53;;;2.32;66.32
74544;BME280;63016;55.030;38.710;2022-10-31T00:18:12;98319.59;;;2.33;66.47
74544;BME280;63016;55.030;38.710;2022-10-31T00:20:38;98314.47;;;2.33;66.31
74544;BME280;63016;55.030;38.710;2022-10-31T00:23:04;98299.47;;;2.28;65.77
74544;BME280;63016;55.030;38.710;2022-10-31T00:25:34;98286.53;;;2.20;65.95
74544;BME280;63016;55.030;38.710;2022-10-31T00:28:01;98301.72;;;2.31;66.45
74544;BME280;63016;55.030;38.710;2022-10-31T00:30:27;98296.75;;;2.30;65.88
74544;BME280;63016;55.030;38.710;2022-10-31T00:32:52;98291.75;;;2.28;66.18
74544;BME280;63016;55.030;38.710;2022-10-31T00:35:18;98300.13;;;2.30;66.25
74544;BME280;63016;55.030;38.710;2022-10-31T00:37:43;98294.00;;;2.31;66.43
74544;BME280;63016;55.030;38.710;2022-10-31T00:40:09;98296.28;;;2.35;66.07
74544;BME280;63016;55.030;38.710;2022-10-31T00:42:35;98292.22;;;2.32;66.14
74544;BME280;63016;55.030;38.710;2022-10-31T00:45:00;98286.16;;;2.33;66.53
74544;BME280;63016;55.030;38.710;2022-10-31T00:47:26;98277.28;;;2.27;66.23
74544;BME280;63016;55.030;38.710;2022-10-31T00:49:51;98282.09;;;2.30;66.42
74544;BME280;63016;55.030;38.710;2022-10-31T00:52:17;98286.94;;;2.34;66.12
74544;BME280;63016;55.030;38.710;2022-10-31T00:54:42;98278.44;;;2.33;66.38
74544;BME280;63016;55.030;38.710;2022-10-31T00:57:08;98284.50;;;2.32;66.17
74544;BME280;63016;55.030;38.710;2022-10-31T00:59:33;98272.25;;;2.26;66.28
74544;BME280;63016;55.030;38.710;2022-10-31T01:01:59;98278.25;;;2.35;66.34
74544;BME280;63016;55.030;38.710;2022-10-31T01:04:24;98275.84;;;2.33;66.48
74544;BME280;63016;55.030;38.710;2022-10-31T01:06:50;98276.94;;;2.30;66.48
74544;BME280;63016;55.030;38.710;2022-10-31T01:09:15;98274.09;;;2.34;66.53
74544;BME280;63016;55.030;38.710;2022-10-31T01:11:40;98280.19;;;2.33;65.88
74544;BME280;63016;55.030;38.710;2022-10-31T01:14:06;98256.19;;;2.24;66.58
74544;BME280;63016;55.030;38.710;2022-10-31T01:16:31;98272.47;;;2.33;66.07
74544;BME280;63016;55.030;38.710;2022-10-31T01:18:57;98267.16;;;2.34;66.17
74544;BME280;63016;55.030;38.710;2022-10-31T01:21:25;98273.75;;;2.37;66.37
74544;BME280;63016;55.030;38.710;2022-10-31T01:23:53;98258.28;;;2.28;66.23
74544;BME280;63016;55.030;38.710;2022-10-31T01:26:21;98279.56;;;2.39;66.46
74544;BME280;63016;55.030;38.710;2022-10-31T01:28:58;98278.44;;;2.41;66.28
74544;BME280;63016;55.030;38.710;2022-10-31T01:31:27;98284.28;;;2.43;66.17
74544;BME280;63016;55.030;38.710;2022-10-31T01:33:53;98271.50;;;2.34;66.56
74544;BME280;63016;55.030;38.710;2022-10-31T01:36:20;98281.81;;;2.42;66.19
74544;BME280;63016;55.030;38.710;2022-10-31T01:38:47;98285.22;;;2.42;66.47
74544;BME280;63016;55.030;38.710;2022-10-31T01:41:16;98276.19;;;2.38;67.09
74544;BME280;63016;55.030;38.710;2022-10-31T01:47:00;98282.19;;;2.47;66.65
74544;BME280;63016;55.030;38.710;2022-10-31T01:52:04;98285.59;;;2.47;66.16
74544;BME280;63016;55.030;38.710;2022-10-31T01:54:39;98286.50;;;2.46;66.68
74544;BME280;63016;55.030;38.710;2022-10-31T01:57:06;98283.94;;;2.46;65.98
74544;BME280;63016;55.030;38.710;2022-10-31T01:59:36;98271.53;;;2.42;66.22
74544;BME280;63016;55.030;38.710;2022-10-31T02:02:05;98287.94;;;2.41;66.35
74544;BME280;63016;55.030;38.710;2022-10-31T02:04:31;98276.34;;;2.37;66.68
74544;BME280;63016;55.030;38.710;2022-10-31T02:07:10;98280.38;;;2.39;66.59
74544;BME280;63016;55.030;38.710;2022-10-31T02:09:39;98267.81;;;2.36;66.72
74544;BME280;63016;55.030;38.710;2022-10-31T02:12:06;98265.75;;;2.40;66.94
74544;BME280;63016;55.030;38.710;2022-10-31T02:14:35;98273.47;;;2.40;66.48
74544;BME280;63016;55.030;38.710;2022-10-31T02:17:01;98278.97;;;2.45;66.85
74544;BME280;63016;55.030;38.710;2022-10-31T02:31:40;98268.38;;;2.48;66.67
74544;BME280;63016;55.030;38.710;2022-10-31T02:34:20;98265.78;;;2.48;66.38
74544;BME280;63016;55.030;38.710;2022-10-31T02:37:00;98260.94;;;2.45;66.49
74544;BME280;63016;55.030;38.710;2022-10-31T02:39:37;98250.59;;;2.37;66.65
74544;BME280;63016;55.030;38.710;2022-10-31T02:45:13;98269.63;;;2.44;66.61
74544;BME280;63016;55.030;38.710;2022-10-31T02:47:41;98261.72;;;2.37;67.04
74544;BME280;63016;55.030;38.710;2022-10-31T02:50:16;98263.81;;;2.42;66.58
74544;BME280;63016;55.030;38.710;2022-10-31T02:52:43;98259.78;;;2.39;66.60
74544;BME280;63016;55.030;38.710;2022-10-31T03:00:24;98261.56;;;2.39;66.49
74544;BME280;63016;55.030;38.710;2022-10-31T03:03:12;98272.22;;;2.44;66.96
74544;BME280;63016;55.030;38.710;2022-10-31T03:06:02;98273.00;;;2.44;66.61
74544;BME280;63016;55.030;38.710;2022-10-31T03:08:35;98266.59;;;2.48;65.80
74544;BME280;63016;55.030;38.710;2022-10-31T03:11:05;98263.81;;;2.42;66.41
74544;BME280;63016;55.030;38.710;2022-10-31T03:19:19;98258.66;;;2.34;66.24
74544;BME280;63016;55.030;38.710;2022-10-31T03:21:54;98253.78;;;2.30;67.00
74544;BME280;63016;55.030;38.710;2022-10-31T03:24:25;98256.06;;;2.34;66.92
74544;BME280;63016;55.030;38.710;2022-10-31T03:26:55;98238.16;;;2.24;66.99
74544;BME280;63016;55.030;38.710;2022-10-31T03:29:26;98251.72;;;2.34;66.95
74544;BME280;63016;55.030;38.710;2022-10-31T03:32:27;98260.88;;;2.37;66.76
74544;BME280;63016;55.030;38.710;2022-10-31T03:34:57;98267.69;;;2.38;67.00
74544;BME280;63016;55.030;38.710;2022-10-31T03:37:27;98258.31;;;2.37;66.83
74544;BME280;63016;55.030;38.710;2022-10-31T03:39:55;98249.63;;;2.29;66.87
74544;BME280;63016;55.030;38.710;2022-10-31T03:42:24;98271.06;;;2.38;67.03
74544;BME280;63016;55.030;38.710;2022-10-31T03:44:57;98279.41;;;2.40;66.91
74544;BME280;63016;55.030;38.710;2022-10-31T03:47:25;98260.88;;;2.37;66.80
74544;BME280;63016;55.030;38.710;2022-10-31T03:49:51;98259.91;;;2.29;67.08
74544;BME280;63016;55.030;38.710;2022-10-31T03:55:31;98268.63;;;2.37;66.37
74544;BME280;63016;55.030;38.710;2022-10-31T03:58:08;98265.69;;;2.31;66.96
74544;BME280;63016;55.030;38.710;2022-10-31T04:00:37;98261.22;;;2.34;67.09
74544;BME280;63016;55.030;38.710;2022-10-31T04:03:26;98256.06;;;2.34;66.61
74544;BME280;63016;55.030;38.710;2022-10-31T04:05:55;98265.06;;;2.29;66.71
74544;BME280;63016;55.030;38.710;2022-10-31T04:08:26;98266.97;;;2.27;66.72
74544;BME280;63016;55.030;38.710;2022-10-31T04:10:54;98278.06;;;2.28;66.54
74544;BME280;63016;55.030;38.710;2022-10-31T04:13:25;98266.94;;;2.19;67.19
74544;BME280;63016;55.030;38.710;2022-10-31T04:15:54;98270.81;;;2.23;66.83
74544;BME280;63016;55.030;38.710;2022-10-31T04:18:24;98272.25;;;2.26;67.32
74544;BME280;63016;55.030;38.710;2022-10-31T04:21:07;98277.28;;;2.27;67.35
74544;BME280;63016;55.030;38.710;2022-10-31T04:23:35;98276.44;;;2.27;67.26
74544;BME280;63016;55.030;38.710;2022-10-31T04:26:00;98278.22;;;2.26;66.71
74544;BME280;63016;55.030;38.710;2022-10-31T04:28:26;98275.81;;;2.25;66.71
74544;BME280;63016;55.030;38.710;2022-10-31T04:30:52;98280.78;;;2.26;66.74
74544;BME280;63016;55.030;38.710;2022-10-31T04:33:18;98275.97;;;2.23;66.52
74544;BME280;63016;55.030;38.710;2022-10-31T04:35:43;98266.75;;;2.21;66.72
74544;BME280;63016;55.030;38.710;2022-10-31T04:38:09;98285.81;;;2.28;67.06
74544;BME280;63016;55.030;38.710;2022-10-31T04:40:35;98286.72;;;2.27;66.95
74544;BME280;63016;55.030;38.710;2022-10-31T04:43:00;98289.19;;;2.28;66.68
74544;BME280;63016;55.030;38.710;2022-10-31T04:45:26;98279.28;;;2.16;67.07
74544;BME280;63016;55.030;38.710;2022-10-31T04:47:51;98297.34;;;2.24;66.51
74544;BME280;63016;55.030;38.710;2022-10-31T04:50:17;98298.16;;;2.24;66.68
74544;BME280;63016;55.030;38.710;2022-10-31T04:52:44;98294.78;;;2.24;66.90
74544;BME280;63016;55.030;38.710;2022-10-31T04:55:11;98293.97;;;2.23;67.08
74544;BME280;63016;55.030;38.710;2022-10-31T04:57:41;98297.47;;;2.22;67.09
74544;BME280;63016;55.030;38.710;2022-10-31T05:00:07;98297.34;;;2.24;67.11
74544;BME280;63016;55.030;38.710;2022-10-31T05:02:33;98297.81;;;2.19;66.81
74544;BME280;63016;55.030;38.710;2022-10-31T05:04:58;98305.19;;;2.22;67.40
74544;BME280;63016;55.030;38.710;2022-10-31T05:07:24;98306.53;;;2.26;67.24
74544;BME280;63016;55.030;38.710;2022-10-31T05:09:49;98303.81;;;2.28;67.34
74544;BME280;63016;55.030;38.710;2022-10-31T05:12:15;98309.75;;;2.28;67.10
74544;BME280;63016;55.030;38.710;2022-10-31T05:14:40;98312.19;;;2.30;67.13
74544;BME280;63016;55.030;38.710;2022-10-31T05:17:06;98306.16;;;2.21;67.36
74544;BME280;63016;55.030;38.710;2022-10-31T05:19:31;98320.69;;;2.30;66.77
74544;BME280;63016;55.030;38.710;2022-10-31T05:21:57;98324.75;;;2.33;67.23
74544;BME280;63016;55.030;38.710;2022-10-31T05:24:22;98323.78;;;2.34;67.26
74544;BME280;63016;55.030;38.710;2022-10-31T05:26:48;98319.75;;;2.31;67.21
74544;BME280;63016;55.030;38.710;2022-10-31T05:29:14;98327.81;;;2.37;67.12
74544;BME280;63016;55.030;38.710;2022-10-31T05:31:39;98333.47;;;2.40;67.60
74544;BME280;63016;55.030;38.710;2022-10-31T05:34:05;98334.94;;;2.43;67.48
74544;BME280;63016;55.030;38.710;2022-10-31T05:36:30;98327.81;;;2.37;66.99
74544;BME280;63016;55.030;38.710;2022-10-31T05:38:56;98335.75;;;2.43;66.99
74544;BME280;63016;55.030;38.710;2022-10-31T05:41:21;98343.81;;;2.48;67.66
74544;BME280;63016;55.030;38.710;2022-10-31T05:43:47;98336.56;;;2.44;67.11
74544;BME280;63016;55.030;38.710;2022-10-31T05:46:12;98337.88;;;2.48;66.94
74544;BME280;63016;55.030;38.710;2022-10-31T05:48:38;98347.19;;;2.49;67.09
74544;BME280;63016;55.030;38.710;2022-10-31T05:51:03;98339.94;;;2.44;67.22
74544;BME280;63016;55.030;38.710;2022-10-31T05:53:29;98353.31;;;2.48;67.36
74544;BME280;63016;55.030;38.710;2022-10-31T05:55:54;98345.28;;;2.51;67.62
74544;BME280;63016;55.030;38.710;2022-10-31T05:58:20;98350.94;;;2.54;67.17
74544;BME280;63016;55.030;38.710;2022-10-31T06:00:45;98362.72;;;2.57;67.68
74544;BME280;63016;55.030;38.710;2022-10-31T06:03:11;98363.84;;;2.63;67.73
74544;BME280;63016;55.030;38.710;2022-10-31T06:05:36;98369.81;;;2.63;67.34
74544;BME280;63016;55.030;38.710;2022-10-31T06:08:02;98363.41;;;2.67;67.19
74544;BME280;63016;55.030;38.710;2022-10-31T06:10:27;98370.63;;;2.64;67.43
74544;BME280;63016;55.030;38.710;2022-10-31T06:12:53;98364.81;;;2.62;67.62
74544;BME280;63016;55.030;38.710;2022-10-31T06:15:18;98372.75;;;2.68;67.10
74544;BME280;63016;55.030;38.710;2022-10-31T06:17:44;98377.25;;;2.66;67.78
74544;BME280;63016;55.030;38.710;2022-10-31T06:20:10;98386.13;;;2.72;67.72
74544;BME280;63016;55.030;38.710;2022-10-31T06:22:36;98382.06;;;2.69;67.50
74544;BME280;63016;55.030;38.710;2022-10-31T06:25:02;98392.72;;;2.74;67.16
74544;BME280;63016;55.030;38.710;2022-10-31T06:27:27;98392.72;;;2.74;67.41
74544;BME280;63016;55.030;38.710;2022-10-31T06:29:53;98397.56;;;2.77;67.59
74544;BME280;63016;55.030;38.710;2022-10-31T06:32:19;98403.38;;;2.79;67.47
74544;BME280;63016;55.030;38.710;2022-10-31T06:34:44;98411.59;;;2.83;67.21
74544;BME280;63016;55.030;38.710;2022-10-31T06:37:13;98413.38;;;2.82;67.34
74544;BME280;63016;55.030;38.710;2022-10-31T06:39:39;98413.22;;;2.84;67.51
74544;BME280;63016;55.030;38.710;2022-10-31T06:42:05;98430.28;;;2.85;67.67
74544;BME280;63016;55.030;38.710;2022-10-31T06:44:31;98431.56;;;2.81;66.95
74544;BME280;63016;55.030;38.710;2022-10-31T06:46:56;98448.31;;;2.85;66.88
74544;BME280;63016;55.030;38.710;2022-10-31T06:49:22;98450.88;;;2.85;67.20
74544;BME280;63016;55.030;38.710;2022-10-31T06:51:48;98452.53;;;2.86;67.44
74544;BME280;63016;55.030;38.710;2022-10-31T06:54:14;98448.31;;;2.85;66.83
74544;BME280;63016;55.030;38.710;2022-10-31T06:56:40;98452.38;;;2.88;67.55
74544;BME280;63016;55.030;38.710;2022-10-31T06:59:06;98450.41;;;2.81;67.48
74544;BME280;63016;55.030;38.710;2022-10-31T07:01:31;98466.56;;;2.92;67.08
74544;BME280;63016;55.030;38.710;2022-10-31T07:03:57;98472.53;;;2.92;67.14
74544;BME280;63016;55.030;38.710;2022-10-31T07:06:22;98480.78;;;2.96;67.22
74544;BME280;63016;55.030;38.710;2022-10-31T07:08:48;98483.19;;;2.97;67.17
74544;BME280;63016;55.030;38.710;2022-10-31T07:11:13;98485.75;;;2.97;67.10
74544;BME280;63016;55.030;38.710;2022-10-31T07:13:39;98497.03;;;2.96;67.20
74544;BME280;63016;55.030;38.710;2022-10-31T07:16:05;98504.88;;;2.95;67.22
74544;BME280;63016;55.030;38.710;2022-10-31T07:18:37;98505.63;;;3.05;66.57
74544;BME280;63016;55.030;38.710;2022-10-31T07:21:02;98523.16;;;3.01;66.85
74544;BME280;63016;55.030;38.710;2022-10-31T07:23:28;98517.47;;;2.98;66.55
74544;BME280;63016;55.030;38.710;2022-10-31T07:25:57;98530.53;;;2.96;67.25
74544;BME280;63016;55.030;38.710;2022-10-31T07:28:24;98526.34;;;2.95;67.01
74544;BME280;63016;55.030;38.710;2022-10-31T07:30:54;98520.66;;;2.92;66.87
74544;BME280;63016;55.030;38.710;2022-10-31T07:33:21;98526.19;;;2.97;67.02
74544;BME280;63016;55.030;38.710;2022-10-31T07:35:46;98533.91;;;2.97;66.73
74544;BME280;63016;55.030;38.710;2022-10-31T07:38:13;98535.50;;;2.98;67.15
74544;BME280;63016;55.030;38.710;2022-10-31T07:40:40;98542.44;;;2.97;67.28
74544;BME280;63016;55.030;38.710;2022-10-31T07:43:06;98549.72;;;3.02;67.15
74544;BME280;63016;55.030;38.710;2022-10-31T07:45:32;98564.88;;;3.05;67.55
74544;BME280;63016;55.030;38.710;2022-10-31T07:47:57;98559.41;;;3.08;67.59
74544;BME280;63016;55.030;38.710;2022-10-31T07:50:28;98563.97;;;3.14;67.34
74544;BME280;63016;55.030;38.710;2022-10-31T07:52:59;98576.41;;;3.19;67.65
74544;BME280;63016;55.030;38.710;2022-10-31T07:55:25;98572.72;;;3.21;67.31
74544;BME280;63016;55.030;38.710;2022-10-31T07:58:01;98576.31;;;3.28;67.33
74544;BME280;63016;55.030;38.710;2022-10-31T08:00:28;98576.97;;;3.30;67.47
74544;BME280;63016;55.030;38.710;2022-10-31T08:03:01;98591.84;;;3.37;67.46
74544;BME280;63016;55.030;38.710;2022-10-31T08:05:28;98594.13;;;3.40;67.57
74544;BME280;63016;55.030;38.710;2022-10-31T08:07:54;98598.16;;;3.42;67.85
74544;BME280;63016;55.030;38.710;2022-10-31T08:10:20;98606.09;;;3.49;67.66
74544;BME280;63016;55.030;38.710;2022-10-31T08:12:46;98616.09;;;3.52;67.16
74544;BME280;63016;55.030;38.710;2022-10-31T08:15:11;98620.00;;;3.56;67.32
74544;BME280;63016;55.030;38.710;2022-10-31T08:17:38;98624.88;;;3.59;67.20
74544;BME280;63016;55.030;38.710;2022-10-31T08:20:04;98643.56;;;3.61;67.52
74544;BME280;63016;55.030;38.710;2022-10-31T08:22:30;98648.72;;;3.61;67.49
74544;BME280;63016;55.030;38.710;2022-10-31T08:24:56;98644.22;;;3.63;67.21
74544;BME280;63016;55.030;38.710;2022-10-31T08:27:21;98641.50;;;3.65;67.13
74544;BME280;63016;55.030;38.710;2022-10-31T08:29:47;98649.88;;;3.67;67.48
74544;BME280;63016;55.030;38.710;2022-10-31T08:32:13;98658.75;;;3.64;67.17
74544;BME280;63016;55.030;38.710;2022-10-31T08:34:38;98666.03;;;3.69;67.39
74544;BME280;63016;55.030;38.710;2022-10-31T08:37:04;98673.31;;;3.73;67.57
74544;BME280;63016;55.030;38.710;2022-10-31T08:39:29;98679.91;;;3.76;67.54
74544;BME280;63016;55.030;38.710;2022-10-31T08:41:55;98671.88;;;3.79;67.22
74544;BME280;63016;55.030;38.710;2022-10-31T08:44:21;98679.78;;;3.77;67.25
74544;BME280;63016;55.030;38.710;2022-10-31T08:46:46;98681.41;;;3.78;67.37
74544;BME280;63016;55.030;38.710;2022-10-31T08:49:12;98689.34;;;3.85;67.61
74544;BME280;63016;55.030;38.710;2022-10-31T08:51:37;98688.88;;;3.90;66.97
74544;BME280;63016;55.030;38.710;2022-10-31T08:54:03;98692.78;;;3.94;67.67
74544;BME280;63016;55.030;38.710;2022-10-31T08:56:28;98698.28;;;3.99;67.38
74544;BME280;63016;55.030;38.710;2022-10-31T08:58:54;98702.66;;;3.98;67.57
74544;BME280;63016;55.030;38.710;2022-10-31T09:01:19;98709.59;;;4.06;67.25
74544;BME280;63016;55.030;38.710;2022-10-31T09:03:45;98711.53;;;4.04;67.31
74544;BME280;63016;55.030;38.710;2022-10-31T09:06:10;98708.81;;;4.05;67.26
74544;BME280;63016;55.030;38.710;2022-10-31T09:08:36;98698.00;;;4.02;67.09
74544;BME280;63016;55.030;38.710;2022-10-31T09:11:02;98713.84;;;4.07;67.74
74544;BME280;63016;55.030;38.710;2022-10-31T09:13:29;98728.06;;;4.11;67.18
74544;BME280;63016;55.030;38.710;2022-10-31T09:15:56;98716.91;;;4.10;67.37
74544;BME280;63016;55.030;38.710;2022-10-31T09:18:25;98710.94;;;4.10;67.32
74544;BME280;63016;55.030;38.710;2022-10-31T09:20:53;98718.38;;;4.13;67.20
74544;BME280;63016;55.030;38.710;2022-10-31T09:23:21;98719.03;;;4.15;67.50
74544;BME280;63016;55.030;38.710;2022-10-31T09:25:48;98722.28;;;4.17;67.40
74544;BME280;63016;55.030;38.710;2022-10-31T09:28:16;98718.09;;;4.16;67.24
74544;BME280;63016;55.030;38.710;2022-10-31T09:30:42;98723.88;;;4.18;67.30
74544;BME280;63016;55.030;38.710;2022-10-31T09:33:11;98726.47;;;4.18;67.36
74544;BME280;63016;55.030;38.710;2022-10-31T09:35:38;98738.75;;;4.24;67.51
74544;BME280;63016;55.030;38.710;2022-10-31T09:38:15;98741.84;;;4.28;67.60
74544;BME280;63016;55.030;38.710;2022-10-31T09:43:28;98753.03;;;4.36;67.41
74544;BME280;63016;55.030;38.710;2022-10-31T09:46:25;98751.78;;;4.41;67.44
74544;BME280;63016;55.030;38.710;2022-10-31T09:51:24;98752.41;;;4.43;67.29
74544;BME280;63016;55.030;38.710;2022-10-31T09:56:25;98758.38;;;4.43;67.02
74544;BME280;63016;55.030;38.710;2022-10-31T09:58:58;98764.34;;;4.44;67.19
74544;BME280;63016;55.030;38.710;2022-10-31T10:03:55;98771.13;;;4.45;67.21
74544;BME280;63016;55.030;38.710;2022-10-31T10:06:25;98765.16;;;4.44;67.07
74544;BME280;63016;55.030;38.710;2022-10-31T10:08:52;98768.56;;;4.45;67.33
74544;BME280;63016;55.030;38.710;2022-10-31T10:11:40;98773.94;;;4.51;67.43
74544;BME280;63016;55.030;38.710;2022-10-31T10:17:03;98782.84;;;4.57;67.84
74544;BME280;63016;55.030;38.710;2022-10-31T10:22:27;98794.31;;;4.62;67.11
74544;BME280;63016;55.030;38.710;2022-10-31T10:25:14;98794.31;;;4.62;66.56
74544;BME280;63016;55.030;38.710;2022-10-31T10:30:20;98795.09;;;4.55;67.32
74544;BME280;63016;55.030;38.710;2022-10-31T10:32:56;98814.19;;;4.62;67.41
74544;BME280;63016;55.030;38.710;2022-10-31T10:35:52;98811.88;;;4.59;67.58
74544;BME280;63016;55.030;38.710;2022-10-31T10:40:48;98836.16;;;4.66;67.32
74544;BME280;63016;55.030;38.710;2022-10-31T10:43:24;98849.44;;;4.71;67.53
74544;BME280;63016;55.030;38.710;2022-10-31T10:49:15;98869.47;;;4.77;67.16
74544;BME280;63016;55.030;38.710;2022-10-31T10:51:45;98843.41;;;4.62;67.27
74544;BME280;63016;55.030;38.710;2022-10-31T10:59:54;98887.44;;;4.79;66.43
74544;BME280;63016;55.030;38.710;2022-10-31T11:02:23;98884.97;;;4.77;66.84
74544;BME280;63016;55.030;38.710;2022-10-31T11:04:55;98884.97;;;4.77;66.58
74544;BME280;63016;55.030;38.710;2022-10-31T11:07:21;98888.59;;;4.84;66.87
74544;BME280;63016;55.030;38.710;2022-10-31T11:09:47;98889.53;;;4.83;66.56
74544;BME280;63016;55.030;38.710;2022-10-31T11:12:21;98890.66;;;4.81;66.64
74544;BME280;63016;55.030;38.710;2022-10-31T11:14:53;98887.44;;;4.79;66.91
74544;BME280;63016;55.030;38.710;2022-10-31T11:17:32;98896.28;;;4.76;67.04
74544;BME280;63016;55.030;38.710;2022-10-31T11:22:46;98895.03;;;4.80;66.95
74544;BME280;63016;55.030;38.710;2022-10-31T11:25:22;98906.81;;;4.83;66.50
74544;BME280;63016;55.030;38.710;2022-10-31T11:27:59;98917.16;;;4.83;66.46
74544;BME280;63016;55.030;38.710;2022-10-31T11:30:25;98906.47;;;4.78;66.69
74544;BME280;63016;55.030;38.710;2022-10-31T11:32:51;98908.91;;;4.79;66.72
74544;BME280;63016;55.030;38.710;2022-10-31T11:35:18;98902.09;;;4.78;66.69
74544;BME280;63016;55.030;38.710;2022-10-31T11:37:46;98898.59;;;4.79;66.39
74544;BME280;63016;55.030;38.710;2022-10-31T11:40:22;98900.81;;;4.74;66.59
74544;BME280;63016;55.030;38.710;2022-10-31T11:42:49;98909.56;;;4.81;66.86
74544;BME280;63016;55.030;38.710;2022-10-31T11:45:29;98916.66;;;4.79;66.60
74544;BME280;63016;55.030;38.710;2022-10-31T11:47:56;98923.28;;;4.82;66.76
74544;BME280;63016;55.030;38.710;2022-10-31T11:50:31;98921.03;;;4.79;66.77
74544;BME280;63016;55.030;38.710;2022-10-31T11:52:58;98918.28;;;4.80;66.65
74544;BME280;63016;55.030;38.710;2022-10-31T11:55:35;98919.09;;;4.81;66.55
74544;BME280;63016;55.030;38.710;2022-10-31T11:58:02;98914.38;;;4.76;66.40
74544;BME280;63016;55.030;38.710;2022-10-31T12:00:33;98913.56;;;4.76;66.21
74544;BME280;63016;55.030;38.710;2022-10-31T12:06:08;98911.97;;;4.75;66.30
74544;BME280;63016;55.030;38.710;2022-10-31T12:08:38;98918.38;;;4.71;66.57
74544;BME280;63016;55.030;38.710;2022-10-31T12:14:16;98915.63;;;4.72;66.25
74544;BME280;63016;55.030;38.710;2022-10-31T12:17:16;98907.88;;;4.72;66.51
74544;BME280;63016;55.030;38.710;2022-10-31T12:29:02;98913.88;;;4.73;66.54
74544;BME280;63016;55.030;38.710;2022-10-31T12:41:36;98934.88;;;4.78;66.55
74544;BME280;63016;55.030;38.710;2022-10-31T12:44:06;98929.25;;;4.74;66.25
74544;BME280;63016;55.030;38.710;2022-10-31T12:49:42;98938.97;;;4.80;66.34
74544;BME280;63016;55.030;38.710;2022-10-31T12:57:42;98940.06;;;4.78;66.34
74544;BME280;63016;55.030;38.710;2022-10-31T13:00:19;98939.25;;;4.77;66.46
74544;BME280;63016;55.030;38.710;2022-10-31T13:03:03;98953.13;;;4.76;66.64
74544;BME280;63016;55.030;38.710;2022-10-31T13:05:58;98958.31;;;4.76;66.43
74544;BME280;63016;55.030;38.710;2022-10-31T13:08:46;98951.00;;;4.72;66.46
74544;BME280;63016;55.030;38.710;2022-10-31T13:11:17;98963.78;;;4.73;66.80
74544;BME280;63016;55.030;38.710;2022-10-31T13:14:03;98956.00;;;4.73;66.53
74544;BME280;63016;55.030;38.710;2022-10-31T13:16:37;98962.31;;;4.71;66.67
74544;BME280;63016;55.030;38.710;2022-10-31T13:19:10;98966.88;;;4.77;66.47
74544;BME280;63016;55.030;38.710;2022-10-31T13:21:53;98971.84;;;4.70;66.31
74544;BME280;63016;55.030;38.710;2022-10-31T13:24:25;98965.00;;;4.61;66.33
74544;BME280;63016;55.030;38.710;2022-10-31T13:26:54;98955.38;;;4.53;66.42
74544;BME280;63016;55.030;38.710;2022-10-31T13:29:31;98967.22;;;4.56;66.78
74544;BME280;63016;55.030;38.710;2022-10-31T13:32:00;98970.41;;;4.50;66.74
74544;BME280;63016;55.030;38.710;2022-10-31T13:34:52;98970.53;;;4.48;66.77
74544;BME280;63016;55.030;38.710;2022-10-31T13:37:37;98976.94;;;4.44;67.16
74544;BME280;63016;55.030;38.710;2022-10-31T13:40:24;98973.06;;;4.40;66.79
74544;BME280;63016;55.030;38.710;2022-10-31T13:43:06;98976.91;;;4.36;66.95
74544;BME280;63016;55.030;38.710;2022-10-31T13:45:35;98975.19;;;4.27;66.38
74544;BME280;63016;55.030;38.710;2022-10-31T13:50:42;98968.78;;;4.13;66.97
74544;BME280;63016;55.030;38.710;2022-10-31T13:55:48;98970.31;;;4.06;66.80
74544;BME280;63016;55.030;38.710;2022-10-31T13:58:29;98971.84;;;3.99;67.29
74544;BME280;63016;55.030;38.710;2022-10-31T14:03:37;98993.03;;;4.02;67.37
74544;BME280;63016;55.030;38.710;2022-10-31T14:06:05;98966.91;;;3.88;67.39
74544;BME280;63016;55.030;38.710;2022-10-31T14:08:34;98961.22;;;3.84;67.25
74544;BME280;63016;55.030;38.710;2022-10-31T14:11:01;98956.50;;;3.79;67.30
74544;BME280;63016;55.030;38.710;2022-10-31T14:13:37;98956.66;;;3.78;67.49
74544;BME280;63016;55.030;38.710;2022-10-31T14:16:30;98969.56;;;3.78;67.54
74544;BME280;63016;55.030;38.710;2022-10-31T14:19:05;98947.63;;;3.64;67.69
74544;BME280;63016;55.030;38.710;2022-10-31T14:21:38;98984.97;;;3.88;67.62
74544;BME280;63016;55.030;38.710;2022-10-31T14:27:03;98950.09;;;3.56;67.42
74544;BME280;63016;55.030;38.710;2022-10-31T14:29:31;98977.03;;;3.71;67.39
74544;BME280;63016;55.030;38.710;2022-10-31T14:32:25;99003.59;;;3.81;66.91
74544;BME280;63016;55.030;38.710;2022-10-31T14:35:01;98989.94;;;3.71;67.43
74544;BME280;63016;55.030;38.710;2022-10-31T14:38:00;99009.50;;;3.74;67.36
74544;BME280;63016;55.030;38.710;2022-10-31T14:43:20;99014.38;;;3.67;67.59
74544;BME280;63016;55.030;38.710;2022-10-31T14:51:20;98987.50;;;3.42;67.61
74544;BME280;63016;55.030;38.710;2022-10-31T14:53:54;98989.94;;;3.44;67.50
74544;BME280;63016;55.030;38.710;2022-10-31T14:56:25;98993.47;;;3.43;67.90
74544;BME280;63016;55.030;38.710;2022-10-31T14:58:53;98999.44;;;3.43;67.79
74544;BME280;63016;55.030;38.710;2022-10-31T15:01:32;99021.50;;;3.55;67.62
74544;BME280;63016;55.030;38.710;2022-10-31T15:04:19;99020.44;;;3.58;67.76
74544;BME280;63016;55.030;38.710;2022-10-31T15:06:50;99030.22;;;3.54;67.48
74544;BME280;63016;55.030;38.710;2022-10-31T15:09:28;99041.06;;;3.58;67.43
74544;BME280;63016;55.030;38.710;2022-10-31T15:11:55;99031.56;;;3.58;67.43
74544;BME280;63016;55.030;38.710;2022-10-31T15:14:29;99027.75;;;3.53;67.75